createdAt,value
2017-05-16T00:00:02.151Z,12.8
2017-05-16T00:05:01.370Z,12.9
2017-05-16T00:10:02.087Z,13
2017-05-16T00:15:01.936Z,13.1
2017-05-16T00:20:02.009Z,13.1
2017-05-16T00:25:01.757Z,13.1
2017-05-16T00:30:01.514Z,13.5
2017-05-16T00:35:01.733Z,13.6
2017-05-16T00:40:01.422Z,13.6
2017-05-16T00:45:01.262Z,13.6
2017-05-16T00:50:01.513Z,13.6
2017-05-16T00:55:01.253Z,13.6
2017-05-16T01:00:02.148Z,13.6
2017-05-16T01:05:01.307Z,13.5
2017-05-16T01:10:02.021Z,13.5
2017-05-16T01:15:01.383Z,13.5
2017-05-16T01:20:02.151Z,13.4
2017-05-16T01:25:02.067Z,13.4
2017-05-16T01:30:01.851Z,13.5
2017-05-16T01:35:02.102Z,13.6
2017-05-16T01:40:01.814Z,13.6
2017-05-16T01:45:01.911Z,13.6
2017-05-16T01:50:01.647Z,13.6
2017-05-16T01:55:01.350Z,13.8
2017-05-16T02:00:01.355Z,13.8
2017-05-16T02:05:01.444Z,13.8
2017-05-16T02:10:01.505Z,13.9
2017-05-16T02:15:01.647Z,13.9
2017-05-16T02:20:01.661Z,14
2017-05-16T02:25:01.708Z,14
2017-05-16T02:30:02.176Z,14
2017-05-16T02:35:01.248Z,14
2017-05-16T02:40:01.810Z,14
2017-05-16T02:45:01.846Z,14
2017-05-16T02:50:01.696Z,14
2017-05-16T02:55:01.480Z,14
2017-05-16T03:00:01.804Z,14
2017-05-16T03:05:01.941Z,14
2017-05-16T03:10:01.652Z,14
2017-05-16T03:15:01.928Z,13.9
2017-05-16T03:20:01.466Z,13.9
2017-05-16T03:25:01.347Z,13.8
2017-05-16T03:30:01.629Z,13.8
2017-05-16T03:35:02.103Z,13.7
2017-05-16T03:40:01.182Z,13.7
2017-05-16T03:45:01.578Z,13.6
2017-05-16T03:50:02.033Z,13.6
2017-05-16T03:55:01.318Z,13.6
2017-05-16T04:00:01.378Z,13.6
2017-05-16T04:05:01.567Z,13.6
2017-05-16T04:10:01.470Z,13.6
2017-05-16T04:15:01.639Z,13.5
2017-05-16T04:20:01.643Z,13.5
2017-05-16T04:25:01.543Z,13.5
2017-05-16T04:30:01.452Z,13.5
2017-05-16T04:35:01.652Z,13.5
2017-05-16T04:40:02.278Z,13.5
2017-05-16T04:45:01.618Z,13.5
2017-05-16T04:50:01.924Z,13.5
2017-05-16T04:55:01.253Z,13.5
2017-05-16T05:00:01.213Z,13.5
2017-05-16T05:05:01.324Z,13.5
2017-05-16T05:10:01.222Z,13.5
2017-05-16T05:15:01.352Z,13.6
2017-05-16T05:20:01.615Z,13.6
2017-05-16T05:25:01.955Z,13.7
2017-05-16T05:30:01.274Z,13.7
2017-05-16T05:35:01.388Z,13.7
2017-05-16T05:40:01.205Z,13.7
2017-05-16T05:45:01.862Z,13.7
2017-05-16T05:50:02.107Z,13.7
2017-05-16T05:55:01.865Z,13.7
2017-05-16T06:00:02.148Z,13.7
2017-05-16T06:05:01.288Z,13.7
2017-05-16T06:10:01.530Z,13.8
2017-05-16T06:15:01.300Z,13.8
2017-05-16T06:20:01.429Z,13.8
2017-05-16T06:25:01.456Z,13.7
2017-05-16T06:30:01.599Z,13.8
2017-05-16T06:35:01.971Z,13.8
2017-05-16T06:40:02.099Z,13.8
2017-05-16T06:45:01.719Z,13.7
2017-05-16T06:50:02.136Z,13.6
2017-05-16T06:55:01.922Z,13.6
2017-05-16T07:00:01.326Z,13.6
2017-05-16T07:05:01.901Z,13.7
2017-05-16T07:10:02.061Z,13.7
2017-05-16T07:15:01.450Z,13.7
2017-05-16T07:20:01.802Z,13.7
2017-05-16T07:25:01.346Z,13.7
2017-05-16T07:30:01.910Z,13.7
2017-05-16T07:35:01.325Z,13.8
2017-05-16T07:40:01.397Z,13.7
2017-05-16T07:45:02.035Z,13.8
2017-05-16T07:50:01.600Z,13.8
2017-05-16T07:55:01.214Z,13.7
2017-05-16T08:00:01.889Z,13.7
2017-05-16T08:05:01.686Z,13.7
2017-05-16T08:10:01.652Z,13.7
2017-05-16T08:15:01.205Z,13.7
2017-05-16T08:20:01.800Z,13.7
2017-05-16T08:25:02.037Z,13.7
2017-05-16T08:30:01.410Z,13.6
2017-05-16T08:35:01.888Z,13.6
2017-05-16T08:40:01.714Z,13.7
2017-05-16T08:45:01.588Z,13.6
2017-05-16T08:50:02.045Z,13.7
2017-05-16T08:55:01.639Z,13.7
2017-05-16T09:00:02.032Z,13.7
2017-05-16T09:05:01.606Z,13.7
2017-05-16T09:10:01.336Z,13.7
2017-05-16T09:15:01.662Z,13.7
2017-05-16T09:20:01.517Z,13.8
2017-05-16T09:25:01.625Z,13.8
2017-05-16T09:30:02.068Z,13.8
2017-05-16T09:35:01.816Z,13.8
2017-05-16T09:40:01.497Z,13.8
2017-05-16T09:45:01.201Z,13.8
2017-05-16T09:50:01.626Z,13.9
2017-05-16T09:55:01.290Z,13.8
2017-05-16T10:00:01.653Z,13.8
2017-05-16T10:05:01.884Z,13.9
2017-05-16T10:10:01.732Z,13.9
2017-05-16T10:15:02.095Z,13.9
2017-05-16T10:20:01.477Z,13.9
2017-05-16T10:25:01.612Z,14
2017-05-16T10:30:01.948Z,14
2017-05-16T10:35:01.347Z,13.9
2017-05-16T10:40:01.250Z,13.9
2017-05-16T10:45:01.961Z,13.9
2017-05-16T10:50:02.164Z,14
2017-05-16T10:55:01.814Z,14
2017-05-16T11:00:02.128Z,14
2017-05-16T11:05:01.372Z,14
2017-05-16T11:10:01.182Z,14
2017-05-16T11:15:01.622Z,14
2017-05-16T11:20:01.800Z,14
2017-05-16T11:25:01.922Z,14.1
2017-05-16T11:30:01.672Z,14
2017-05-16T11:35:02.109Z,14.1
2017-05-16T11:40:01.811Z,14.1
2017-05-16T11:45:01.838Z,14.1
2017-05-16T11:50:01.208Z,14.1
2017-05-16T11:55:01.660Z,14.1
2017-05-16T12:00:01.924Z,14.2
2017-05-16T12:05:01.709Z,14.2
2017-05-16T12:10:01.523Z,14.2
2017-05-16T12:15:01.896Z,14.2
2017-05-16T12:20:01.259Z,14.2
2017-05-16T12:25:01.278Z,14.2
2017-05-16T12:30:01.519Z,14.2
2017-05-16T12:35:01.215Z,14.3
2017-05-16T12:40:01.918Z,14.4
2017-05-16T12:45:01.619Z,14.4
2017-05-16T12:50:01.782Z,14.5
2017-05-16T12:55:01.486Z,14.5
2017-05-16T13:00:01.925Z,14.6
2017-05-16T13:05:02.064Z,14.6
2017-05-16T13:10:01.779Z,14.8
2017-05-16T13:15:01.741Z,14.9
2017-05-16T13:20:02.069Z,14.9
2017-05-16T13:25:01.981Z,15
2017-05-16T13:30:01.218Z,15
2017-05-16T13:35:01.457Z,15
2017-05-16T13:40:01.600Z,15
2017-05-16T13:45:01.838Z,15
2017-05-16T13:50:01.840Z,15
2017-05-16T13:55:01.217Z,15
2017-05-16T14:00:01.710Z,15
2017-05-16T14:05:01.263Z,15
2017-05-16T14:10:02.116Z,15
2017-05-16T14:15:01.624Z,15
2017-05-16T14:20:01.898Z,15
2017-05-16T14:25:01.974Z,15
2017-05-16T14:30:01.445Z,15
2017-05-16T14:35:01.871Z,15
2017-05-16T14:40:01.566Z,15
2017-05-16T14:45:01.555Z,15
2017-05-16T14:50:02.204Z,15
2017-05-16T14:55:01.675Z,15
2017-05-16T15:00:01.274Z,15
2017-05-16T15:05:01.240Z,15
2017-05-16T15:10:01.381Z,15
2017-05-16T15:15:01.773Z,15
2017-05-16T15:20:02.018Z,15
2017-05-16T15:25:01.180Z,15
2017-05-16T15:30:01.470Z,15
2017-05-16T15:35:02.077Z,15
2017-05-16T15:40:01.822Z,15
2017-05-16T15:45:01.621Z,15
2017-05-16T15:50:01.282Z,15
2017-05-16T15:55:01.816Z,15
2017-05-16T16:00:01.386Z,15
2017-05-16T16:05:02.116Z,15
2017-05-16T16:10:01.948Z,15.2
2017-05-16T16:15:02.161Z,15.2
2017-05-16T16:20:01.694Z,15.2
2017-05-16T16:25:01.746Z,15.4
2017-05-16T16:30:01.304Z,15.4
2017-05-16T16:35:01.735Z,15.4
2017-05-16T16:40:01.592Z,15.3
2017-05-16T16:45:01.507Z,15.3
2017-05-16T16:50:01.677Z,15.3
2017-05-16T16:55:01.383Z,15.3
2017-05-16T17:00:01.773Z,15.3
2017-05-16T17:05:02.119Z,15.3
2017-05-16T17:10:01.690Z,15.2
2017-05-16T17:15:01.460Z,15.2
2017-05-16T17:20:02.169Z,15.2
2017-05-16T17:25:01.337Z,15.1
2017-05-16T17:30:01.996Z,15.1
2017-05-16T17:35:01.673Z,15.1
2017-05-16T17:40:02.087Z,15.1
2017-05-16T17:45:01.469Z,15
2017-05-16T17:50:01.425Z,15
2017-05-16T17:55:01.797Z,15
2017-05-16T18:00:01.270Z,15
2017-05-16T18:05:01.687Z,15
2017-05-16T18:10:01.794Z,15
2017-05-16T18:15:01.264Z,15
2017-05-16T18:20:01.959Z,15
2017-05-16T18:25:01.290Z,15
2017-05-16T18:30:02.132Z,15
2017-05-16T18:35:01.251Z,15
2017-05-16T18:40:01.335Z,15
2017-05-16T18:45:02.056Z,15
2017-05-16T18:50:02.182Z,15
2017-05-16T18:55:01.253Z,15
2017-05-16T19:00:01.398Z,15
2017-05-16T19:05:01.557Z,15
2017-05-16T19:10:01.507Z,15
2017-05-16T19:15:01.718Z,15
2017-05-16T19:20:02.353Z,15
2017-05-16T19:25:01.217Z,15
2017-05-16T19:30:01.341Z,15
2017-05-16T19:35:01.633Z,15
2017-05-16T19:40:01.688Z,15
2017-05-16T19:45:01.275Z,15
2017-05-16T19:50:01.938Z,15
2017-05-16T19:55:01.911Z,15
2017-05-16T20:00:01.302Z,15
2017-05-16T20:05:01.364Z,15
2017-05-16T20:10:02.154Z,15
2017-05-16T20:15:01.181Z,15
2017-05-16T20:20:01.735Z,15
2017-05-16T20:25:02.177Z,15
2017-05-16T20:30:01.608Z,15
2017-05-16T20:35:01.730Z,15
2017-05-16T20:40:01.553Z,15
2017-05-16T20:45:02.043Z,15
2017-05-16T20:50:01.864Z,15
2017-05-16T20:55:01.875Z,15
2017-05-16T21:00:02.126Z,15
2017-05-16T21:05:01.626Z,15
2017-05-16T21:10:01.367Z,15
2017-05-16T21:15:01.862Z,15
2017-05-16T21:20:01.896Z,15
2017-05-16T21:25:01.359Z,15
2017-05-16T21:30:01.790Z,15
2017-05-16T21:35:02.089Z,15
2017-05-16T21:40:02.023Z,15
2017-05-16T21:45:01.314Z,15
2017-05-16T21:50:01.275Z,15
2017-05-16T21:55:01.746Z,15
2017-05-16T22:00:02.121Z,15
2017-05-16T22:05:01.190Z,15
2017-05-16T22:10:01.881Z,15
2017-05-16T22:15:02.149Z,15
2017-05-16T22:20:01.538Z,15
2017-05-16T22:25:01.953Z,15
2017-05-16T22:30:01.923Z,15
2017-05-16T22:35:01.373Z,15
2017-05-16T22:40:02.026Z,15
2017-05-16T22:45:02.154Z,15
2017-05-16T22:50:01.499Z,15
2017-05-16T22:55:01.538Z,15
2017-05-16T23:00:01.564Z,15
2017-05-16T23:05:01.721Z,15
2017-05-16T23:10:01.483Z,15
2017-05-16T23:15:01.362Z,15
2017-05-16T23:20:02.080Z,15
2017-05-16T23:25:01.830Z,15
2017-05-16T23:30:01.698Z,15
2017-05-16T23:35:01.325Z,15
2017-05-16T23:40:02.118Z,15
2017-05-16T23:45:01.984Z,15
2017-05-16T23:50:01.527Z,15
2017-05-16T23:55:01.232Z,15
